Time;durP1;ratioP1;P1;durP2;ratioP2;P2;SDS_P1;SDS_P2;PMS_P1;PMS_P2;Temp;Humidity;BMP_temperature;BMP_pressure;BME280_temperature;BME280_humidity;BME280_pressure;Samples;Min_cycle;Max_cycle;Signal;HPM_P1;HPM_P2
2022/04/07 00:01:22;;;;;;;70.40;48.88;;;15.80;55.20;;;;;;4993261;28;95372;-35
2022/04/07 00:03:47;;;;;;;71.93;49.10;;;15.70;55.20;;;;;;4991067;28;94603;-38
2022/04/07 00:06:13;;;;;;;70.32;49.08;;;15.70;55.20;;;;;;4993889;28;96944;-38
2022/04/07 00:08:39;;;;;;;72.35;49.35;;;15.80;55.30;;;;;;4990913;28;95763;-40
2022/04/07 00:11:06;;;;;;;70.20;49.05;;;15.70;55.20;;;;;;5000300;28;95212;-39
2022/04/07 00:13:32;;;;;;;72.55;49.25;;;15.70;55.20;;;;;;4987758;28;95291;-39
2022/04/07 00:16:00;;;;;;;70.80;49.10;;;15.80;55.30;;;;;;4998499;28;95052;-38
2022/04/07 00:18:26;;;;;;;69.93;48.92;;;15.70;55.20;;;;;;4989156;28;94775;-38
2022/04/07 00:20:52;;;;;;;70.80;49.03;;;15.70;55.20;;;;;;4993092;28;95965;-35
2022/04/07 00:23:19;;;;;;;70.43;48.95;;;15.70;55.30;;;;;;4986519;28;94176;-39
2022/04/07 00:25:45;;;;;;;71.97;49.10;;;15.70;55.20;;;;;;4990473;28;95179;-40
2022/04/07 00:28:11;;;;;;;70.35;49.03;;;15.80;55.30;;;;;;4991223;28;94890;-36
2022/04/07 00:30:39;;;;;;;70.43;49.00;;;15.70;55.20;;;;;;4991392;28;95942;-37
2022/04/07 00:33:07;;;;;;;70.82;48.95;;;15.70;55.20;;;;;;4992561;28;95929;-39
2022/04/07 00:35:33;;;;;;;70.68;49.22;;;15.80;55.20;;;;;;4993415;28;94966;-34
2022/04/07 00:37:59;;;;;;;71.28;49.15;;;15.70;55.20;;;;;;4991680;28;94951;-38
2022/04/07 00:40:25;;;;;;;71.15;48.95;;;15.80;55.20;;;;;;4991620;28;94664;-35
2022/04/07 00:42:52;;;;;;;70.85;48.85;;;15.80;55.20;;;;;;4994254;28;94882;-36
2022/04/07 00:45:20;;;;;;;70.15;48.80;;;15.70;55.10;;;;;;4994118;28;95275;-40
2022/04/07 00:47:46;;;;;;;70.10;48.95;;;15.70;55.10;;;;;;4992294;28;95730;-36
2022/04/07 00:50:14;;;;;;;70.22;48.85;;;15.80;55.50;;;;;;4992606;28;94605;-35
2022/04/07 00:53:02;;;;;;;70.05;48.88;;;15.80;55.30;;;;;;4990917;28;95415;-36
2022/04/07 00:55:29;;;;;;;70.85;48.88;;;15.70;55.20;;;;;;4991012;28;95905;-36
2022/04/07 00:57:55;;;;;;;71.47;49.05;;;15.70;55.30;;;;;;4993929;28;95227;-40
2022/04/07 01:00:20;;;;;;;71.60;48.95;;;15.70;55.20;;;;;;4996893;28;95035;-37
2022/04/07 01:02:46;;;;;;;70.95;48.80;;;15.70;55.20;;;;;;4990692;28;94911;-34
2022/04/07 01:05:12;;;;;;;69.90;48.75;;;15.80;55.30;;;;;;4992321;28;95774;-41
2022/04/07 01:07:39;;;;;;;70.00;48.88;;;15.70;55.20;;;;;;4996309;28;95677;-36
2022/04/07 01:10:09;;;;;;;71.15;48.95;;;15.70;55.30;;;;;;4992335;28;95262;-37
2022/04/07 01:12:36;;;;;;;71.05;49.28;;;15.70;55.30;;;;;;4998962;28;94309;-41
2022/04/07 01:15:04;;;;;;;70.88;49.35;;;15.70;55.20;;;;;;4992857;28;95552;-36
2022/04/07 01:17:30;;;;;;;70.70;49.05;;;15.70;55.20;;;;;;4995138;28;95444;-37
2022/04/07 01:19:56;;;;;;;71.28;48.95;;;15.70;55.30;;;;;;4999503;28;95720;-42
2022/04/07 01:22:23;;;;;;;70.20;48.90;;;15.70;55.30;;;;;;4993908;28;94955;-38
2022/04/07 01:24:49;;;;;;;69.97;48.88;;;15.70;55.30;;;;;;4991255;28;96905;-37
2022/04/07 01:27:16;;;;;;;70.90;49.05;;;15.70;55.30;;;;;;4999664;28;95247;-37
2022/04/07 01:29:43;;;;;;;71.18;49.17;;;15.70;55.30;;;;;;4993414;28;94931;-38
2022/04/07 01:32:14;;;;;;;70.72;48.92;;;15.70;55.20;;;;;;4995606;28;95091;-36
2022/04/07 01:34:40;;;;;;;71.40;49.42;;;15.70;55.20;;;;;;4994609;28;95234;-36
2022/04/07 01:37:07;;;;;;;70.82;49.08;;;15.70;55.20;;;;;;4993200;28;94560;-36
2022/04/07 01:39:35;;;;;;;70.22;48.95;;;15.70;55.30;;;;;;4989080;28;95121;-36
2022/04/07 01:42:01;;;;;;;73.15;49.47;;;15.70;55.20;;;;;;4989914;28;96349;-37
2022/04/07 01:44:28;;;;;;;69.47;48.78;;;15.70;55.30;;;;;;4994657;28;96490;-40
2022/04/07 01:46:56;;;;;;;70.70;48.97;;;15.70;55.20;;;;;;4992769;28;97625;-37
2022/04/07 01:49:23;;;;;;;69.90;48.92;;;15.70;55.20;;;;;;4998354;28;95642;-39
2022/04/07 01:51:49;;;;;;;70.32;49.05;;;15.70;55.20;;;;;;4995570;28;94987;-36
2022/04/07 01:54:15;;;;;;;71.30;49.17;;;15.70;55.20;;;;;;4994009;28;94692;-38
2022/04/07 01:56:43;;;;;;;70.35;49.20;;;15.70;55.20;;;;;;5002259;28;95208;-34
2022/04/07 01:59:09;;;;;;;70.70;49.13;;;15.70;55.20;;;;;;4997316;28;94737;-40
2022/04/07 02:01:35;;;;;;;71.25;48.95;;;15.70;55.20;;;;;;4991874;28;97168;-36
2022/04/07 02:04:01;;;;;;;70.97;48.88;;;15.70;55.20;;;;;;4991331;28;95555;-35
2022/04/07 02:06:27;;;;;;;70.40;48.80;;;15.70;55.20;;;;;;4992132;28;95181;-36
2022/04/07 02:08:54;;;;;;;70.45;49.33;;;15.70;55.30;;;;;;4993622;28;95981;-38
2022/04/07 02:11:19;;;;;;;71.00;49.13;;;15.70;55.30;;;;;;4993811;28;95389;-36
2022/04/07 02:13:45;;;;;;;70.18;48.95;;;15.70;55.20;;;;;;4994016;28;94988;-38
2022/04/07 02:16:11;;;;;;;70.07;48.75;;;15.70;55.20;;;;;;4992626;28;95869;-40
2022/04/07 02:18:38;;;;;;;71.20;49.25;;;15.70;55.20;;;;;;4991143;28;96146;-39
2022/04/07 02:21:05;;;;;;;70.43;49.05;;;15.70;55.30;;;;;;4990427;28;94744;-36
2022/04/07 02:23:34;;;;;;;71.13;48.95;;;15.70;55.20;;;;;;4993327;28;95229;-34
2022/04/07 02:25:59;;;;;;;70.85;49.28;;;15.70;55.20;;;;;;4992561;28;94501;-34
2022/04/07 02:28:25;;;;;;;70.85;48.88;;;15.70;55.20;;;;;;4999883;28;94989;-33
2022/04/07 02:30:51;;;;;;;70.43;48.95;;;15.70;55.20;;;;;;4995775;28;95122;-33
2022/04/07 02:33:16;;;;;;;70.18;48.78;;;15.70;55.30;;;;;;4996818;28;96413;-41
2022/04/07 02:35:42;;;;;;;71.00;49.22;;;15.70;55.30;;;;;;4995230;28;95714;-40
2022/04/07 02:38:07;;;;;;;69.72;48.95;;;15.70;55.30;;;;;;4989974;28;96310;-39
2022/04/07 02:40:33;;;;;;;70.07;48.83;;;15.70;55.30;;;;;;4992300;28;95319;-37
2022/04/07 02:42:59;;;;;;;69.63;48.78;;;15.70;55.20;;;;;;4996577;28;96330;-37
2022/04/07 02:45:24;;;;;;;71.07;49.00;;;15.70;55.20;;;;;;4994317;28;99527;-37
2022/04/07 02:47:50;;;;;;;70.32;48.88;;;15.70;55.30;;;;;;4990914;28;95106;-40
2022/04/07 02:50:19;;;;;;;69.72;48.70;;;15.70;55.20;;;;;;4988252;28;94598;-36
2022/04/07 02:52:44;;;;;;;69.82;48.95;;;15.70;55.20;;;;;;4990945;28;95492;-38
2022/04/07 02:55:10;;;;;;;71.15;48.95;;;15.70;55.20;;;;;;4997750;28;95260;-35
2022/04/07 02:57:36;;;;;;;69.68;48.78;;;15.70;55.30;;;;;;4993707;28;96130;-41
2022/04/07 03:00:04;;;;;;;69.65;48.67;;;15.70;55.30;;;;;;4994908;28;94929;-39
2022/04/07 03:02:30;;;;;;;69.30;48.65;;;15.70;55.90;;;;;;4988555;28;95247;-39
2022/04/07 03:04:55;;;;;;;70.18;48.75;;;15.70;55.30;;;;;;4988868;28;94926;-37
2022/04/07 03:07:21;;;;;;;70.00;48.92;;;15.70;55.30;;;;;;4996062;28;95059;-37
2022/04/07 03:09:47;;;;;;;70.03;49.05;;;15.70;55.30;;;;;;4995424;28;95163;-36
2022/04/07 03:12:15;;;;;;;69.88;48.67;;;15.70;55.30;;;;;;4990915;28;95115;-36
2022/04/07 03:14:41;;;;;;;69.90;48.85;;;15.70;55.30;;;;;;4995826;28;95535;-39
2022/04/07 03:17:07;;;;;;;69.88;48.83;;;15.70;55.30;;;;;;4987867;28;94892;-37
2022/04/07 03:19:34;;;;;;;69.25;48.63;;;15.70;55.30;;;;;;4993772;28;95012;-37
2022/04/07 03:22:00;;;;;;;69.93;48.80;;;15.70;55.30;;;;;;4989537;28;96604;-39
2022/04/07 03:24:25;;;;;;;69.53;48.65;;;15.70;55.20;;;;;;4995133;28;95325;-36
2022/04/07 03:26:52;;;;;;;70.28;48.85;;;15.70;55.20;;;;;;4993281;28;94987;-37
2022/04/07 03:29:21;;;;;;;69.57;48.67;;;15.70;55.20;;;;;;4993466;28;95213;-39
2022/04/07 03:31:48;;;;;;;70.03;48.85;;;15.70;55.30;;;;;;4988160;28;94982;-40
2022/04/07 03:34:14;;;;;;;70.32;48.72;;;15.70;55.40;;;;;;4992871;28;95742;-38
2022/04/07 03:36:40;;;;;;;70.30;48.75;;;15.70;55.30;;;;;;4986020;28;95161;-42
2022/04/07 03:39:05;;;;;;;70.53;48.78;;;15.70;55.40;;;;;;4988668;28;94195;-39
2022/04/07 03:41:31;;;;;;;70.32;48.78;;;15.70;55.30;;;;;;4986993;28;95692;-38
2022/04/07 03:43:57;;;;;;;70.95;48.95;;;15.60;55.30;;;;;;4991337;28;99773;-42
2022/04/07 03:46:24;;;;;;;69.32;48.75;;;15.70;55.40;;;;;;4999240;28;100937;-38
2022/04/07 03:48:50;;;;;;;70.32;49.03;;;15.70;55.30;;;;;;4990285;28;95380;-36
2022/04/07 03:51:18;;;;;;;70.15;48.92;;;15.70;55.30;;;;;;4989313;28;95713;-39
2022/04/07 03:53:44;;;;;;;70.10;48.75;;;15.70;55.30;;;;;;4990158;28;99858;-37
2022/04/07 03:56:10;;;;;;;70.22;48.97;;;15.70;55.30;;;;;;4997433;28;94678;-38
2022/04/07 03:58:37;;;;;;;69.65;48.78;;;15.70;55.30;;;;;;4996851;28;94632;-39
2022/04/07 04:01:03;;;;;;;69.50;48.63;;;15.70;55.30;;;;;;4990680;28;95448;-38
2022/04/07 04:03:29;;;;;;;69.57;48.65;;;15.70;55.40;;;;;;4991217;28;94261;-37
2022/04/07 04:05:54;;;;;;;70.40;48.53;;;15.60;55.30;;;;;;4992612;28;95044;-39
2022/04/07 04:08:20;;;;;;;69.68;48.72;;;15.60;55.30;;;;;;4995421;28;94807;-36
2022/04/07 04:10:46;;;;;;;69.43;48.65;;;15.60;55.30;;;;;;4986374;28;96272;-40
2022/04/07 04:13:11;;;;;;;69.25;48.55;;;15.60;55.40;;;;;;4995102;28;95129;-39
2022/04/07 04:15:37;;;;;;;69.95;48.72;;;15.60;55.30;;;;;;4992034;28;95161;-41
2022/04/07 04:18:03;;;;;;;70.65;48.95;;;15.60;55.40;;;;;;4987880;28;95504;-37
2022/04/07 04:20:29;;;;;;;69.57;48.83;;;15.60;55.40;;;;;;4993562;28;96170;-36
2022/04/07 04:22:54;;;;;;;69.35;48.63;;;15.60;55.40;;;;;;4989120;28;96042;-36
2022/04/07 04:25:21;;;;;;;70.03;48.75;;;15.60;55.50;;;;;;4995061;28;94938;-37
2022/04/07 04:27:47;;;;;;;70.40;48.90;;;15.60;55.40;;;;;;4989095;28;93990;-38
2022/04/07 04:30:13;;;;;;;69.43;48.75;;;15.60;55.50;;;;;;4990333;28;94940;-41
2022/04/07 04:32:39;;;;;;;69.80;48.72;;;15.60;55.40;;;;;;4985340;28;95056;-38
2022/04/07 04:35:06;;;;;;;69.35;48.63;;;15.60;55.50;;;;;;4990220;28;95844;-45
2022/04/07 04:37:31;;;;;;;69.78;48.75;;;15.60;55.40;;;;;;4984657;28;95120;-36
2022/04/07 04:39:57;;;;;;;69.50;48.85;;;15.60;55.50;;;;;;4985148;28;96655;-38
2022/04/07 04:42:23;;;;;;;70.05;48.72;;;15.60;55.40;;;;;;4990818;28;95559;-41
2022/04/07 04:44:49;;;;;;;70.00;48.95;;;15.60;55.30;;;;;;4985456;28;95040;-40
2022/04/07 04:47:17;;;;;;;69.13;48.60;;;15.60;55.30;;;;;;4990879;28;95094;-36
2022/04/07 04:49:42;;;;;;;70.18;48.65;;;15.60;55.30;;;;;;4987552;28;95203;-39
2022/04/07 04:52:11;;;;;;;69.80;48.90;;;15.60;55.30;;;;;;4993416;28;94427;-41
2022/04/07 04:54:37;;;;;;;69.68;48.80;;;15.60;55.30;;;;;;4993927;28;95106;-46
2022/04/07 04:57:03;;;;;;;69.75;48.95;;;15.60;55.20;;;;;;4992850;28;94794;-37
2022/04/07 04:59:29;;;;;;;70.22;49.03;;;15.60;55.30;;;;;;4984967;28;96091;-37
2022/04/07 05:01:55;;;;;;;70.18;48.80;;;15.60;55.30;;;;;;4986305;28;95457;-38
2022/04/07 05:04:21;;;;;;;70.03;48.75;;;15.60;55.30;;;;;;4993051;28;95247;-39
2022/04/07 05:06:47;;;;;;;70.65;48.75;;;15.60;55.30;;;;;;4995745;28;95040;-38
2022/04/07 05:09:12;;;;;;;70.07;48.75;;;15.60;55.40;;;;;;4989093;28;94951;-45
2022/04/07 05:11:38;;;;;;;70.45;48.75;;;15.60;55.40;;;;;;4994029;28;95063;-36
2022/04/07 05:14:04;;;;;;;69.85;48.80;;;15.60;55.50;;;;;;4987323;28;95121;-42
2022/04/07 05:16:29;;;;;;;69.68;48.88;;;15.60;55.40;;;;;;4996768;28;93818;-38
2022/04/07 05:18:55;;;;;;;69.28;48.58;;;15.60;55.40;;;;;;4993065;27;94721;-41
2022/04/07 05:21:21;;;;;;;70.20;48.50;;;15.60;55.40;;;;;;4990205;28;95169;-36
2022/04/07 05:23:46;;;;;;;70.25;48.80;;;15.60;55.30;;;;;;4989472;28;95746;-41
2022/04/07 05:26:12;;;;;;;69.07;48.67;;;15.60;55.40;;;;;;4994776;28;95085;-40
2022/04/07 05:28:39;;;;;;;69.57;48.72;;;15.60;55.40;;;;;;4993074;28;94884;-38
2022/04/07 05:31:05;;;;;;;70.15;48.83;;;15.60;55.50;;;;;;4997334;28;96158;-39
2022/04/07 05:33:31;;;;;;;69.93;48.75;;;15.60;55.40;;;;;;4989895;28;95179;-38
2022/04/07 05:35:57;;;;;;;70.18;48.95;;;15.60;55.40;;;;;;4994261;28;94900;-38
2022/04/07 05:38:22;;;;;;;70.45;48.85;;;15.60;55.40;;;;;;4992124;28;95738;-35
2022/04/07 05:40:48;;;;;;;69.68;48.65;;;15.60;55.30;;;;;;4992697;28;94553;-39
2022/04/07 05:43:14;;;;;;;69.78;48.83;;;15.60;55.30;;;;;;4998549;28;95037;-37
2022/04/07 05:45:41;;;;;;;70.53;48.95;;;15.60;55.30;;;;;;4988883;28;94963;-40
2022/04/07 05:48:07;;;;;;;69.22;48.65;;;15.60;55.30;;;;;;4993653;28;97242;-42
2022/04/07 05:50:33;;;;;;;69.60;48.83;;;15.60;55.20;;;;;;4994508;28;96729;-40
2022/04/07 05:52:59;;;;;;;69.93;48.65;;;15.60;55.30;;;;;;4992432;28;95109;-36
2022/04/07 05:55:24;;;;;;;69.47;48.55;;;15.60;55.40;;;;;;4988974;28;95536;-40
2022/04/07 05:57:50;;;;;;;69.90;48.83;;;15.60;55.30;;;;;;4995320;28;95267;-39
2022/04/07 06:00:19;;;;;;;70.63;48.85;;;15.60;55.30;;;;;;4989172;28;94612;-39
2022/04/07 06:02:46;;;;;;;70.10;48.70;;;15.60;55.40;;;;;;4989012;28;98128;-39
2022/04/07 06:05:16;;;;;;;69.68;48.65;;;15.60;55.40;;;;;;4995273;28;94344;-37
2022/04/07 06:07:42;;;;;;;71.13;48.78;;;15.60;55.40;;;;;;4991647;28;94939;-39
2022/04/07 06:10:08;;;;;;;70.47;48.92;;;15.60;55.50;;;;;;4997704;28;94803;-39
2022/04/07 06:12:34;;;;;;;69.05;48.55;;;15.60;55.40;;;;;;4996098;28;95626;-36
2022/04/07 06:15:00;;;;;;;70.63;48.88;;;15.60;55.50;;;;;;4989534;28;94947;-40
2022/04/07 06:17:39;;;;;;;69.95;48.75;;;15.60;55.50;;;;;;4995874;28;95100;-41
2022/04/07 06:20:10;;;;;;;69.63;48.65;;;15.60;55.50;;;;;;4994779;28;97767;-36
2022/04/07 06:22:36;;;;;;;69.55;48.92;;;15.60;55.60;;;;;;4995395;28;94890;-36
2022/04/07 06:25:03;;;;;;;69.47;48.92;;;15.60;55.50;;;;;;4992731;28;95734;-36
2022/04/07 06:27:46;;;;;;;69.53;48.83;;;15.60;55.40;;;;;;4996302;28;97277;-42
2022/04/07 06:30:14;;;;;;;71.20;48.83;;;15.60;55.30;;;;;;4987291;28;94100;-41
2022/04/07 06:32:40;;;;;;;70.40;48.95;;;15.60;55.50;;;;;;4997396;28;94841;-39
2022/04/07 06:35:07;;;;;;;69.60;48.65;;;15.60;55.40;;;;;;4989375;28;94891;-36
2022/04/07 06:37:55;;;;;;;70.55;49.05;;;15.60;55.40;;;;;;4992182;28;95590;-35
2022/04/07 06:40:23;;;;;;;69.78;48.75;;;15.60;55.40;;;;;;4993907;28;96564;-37
2022/04/07 06:42:50;;;;;;;69.90;48.70;;;15.60;55.40;;;;;;4993432;28;94753;-38
2022/04/07 06:45:16;;;;;;;70.30;48.90;;;15.60;55.60;;;;;;4990481;28;94708;-37
2022/04/07 06:47:42;;;;;;;70.05;48.95;;;15.60;55.50;;;;;;4986519;27;95266;-39
2022/04/07 06:50:13;;;;;;;70.05;49.05;;;15.60;55.50;;;;;;4987262;28;94720;-42
2022/04/07 06:52:40;;;;;;;69.93;48.80;;;15.60;55.50;;;;;;4992949;28;95092;-38
2022/04/07 06:55:07;;;;;;;71.38;48.88;;;15.60;55.60;;;;;;4995071;28;94332;-39
2022/04/07 06:57:54;;;;;;;70.80;49.15;;;15.60;55.50;;;;;;4995122;28;95650;-39
2022/04/07 07:00:21;;;;;;;69.78;48.83;;;15.70;55.40;;;;;;4992172;28;95470;-39
2022/04/07 07:02:52;;;;;;;70.03;49.05;;;15.70;55.40;;;;;;4989159;28;95817;-40
2022/04/07 07:05:18;;;;;;;70.40;49.00;;;15.70;55.50;;;;;;4993860;28;94621;-38
2022/04/07 07:07:44;;;;;;;70.35;48.95;;;15.70;55.40;;;;;;4988428;28;94953;-36
2022/04/07 07:10:11;;;;;;;70.32;48.97;;;15.70;55.50;;;;;;4996212;28;94968;-36
2022/04/07 07:12:37;;;;;;;71.15;49.05;;;15.70;55.50;;;;;;4989466;28;94699;-38
2022/04/07 07:15:03;;;;;;;70.15;48.95;;;15.70;55.60;;;;;;4992885;28;94625;-37
2022/04/07 07:17:33;;;;;;;70.28;48.95;;;15.70;55.60;;;;;;4990443;28;96191;-34
2022/04/07 07:20:07;;;;;;;70.88;48.95;;;15.70;55.60;;;;;;4988736;28;94935;-39
2022/04/07 07:22:33;;;;;;;70.30;48.83;;;15.70;55.60;;;;;;4989369;27;95460;-36
2022/04/07 07:24:59;;;;;;;70.47;49.15;;;15.70;55.80;;;;;;4994860;28;96008;-42
2022/04/07 07:27:25;;;;;;;70.38;48.95;;;15.70;55.60;;;;;;4995205;28;96266;-40
2022/04/07 07:29:51;;;;;;;69.90;48.92;;;15.70;55.70;;;;;;4982498;28;95551;-40
2022/04/07 07:32:17;;;;;;;69.88;48.80;;;15.70;55.80;;;;;;4986397;28;94938;-38
2022/04/07 07:34:43;;;;;;;69.85;48.65;;;15.70;55.70;;;;;;4995559;28;95597;-38
2022/04/07 07:37:08;;;;;;;69.95;48.72;;;15.70;55.80;;;;;;4984272;28;94750;-34
2022/04/07 07:39:34;;;;;;;69.90;48.95;;;15.70;55.90;;;;;;4989773;28;95628;-39
2022/04/07 07:42:00;;;;;;;70.30;48.88;;;15.70;56.00;;;;;;4993636;28;96033;-39
2022/04/07 07:44:25;;;;;;;70.38;48.95;;;15.70;56.20;;;;;;4991584;28;95753;-35
2022/04/07 07:46:51;;;;;;;70.10;48.75;;;15.60;55.90;;;;;;4994651;28;94980;-36
2022/04/07 07:49:17;;;;;;;70.22;48.70;;;15.70;55.90;;;;;;4990587;28;94719;-39
2022/04/07 07:51:43;;;;;;;70.30;48.83;;;15.70;56.10;;;;;;4988854;28;95864;-38
2022/04/07 07:54:08;;;;;;;70.85;48.75;;;15.70;56.00;;;;;;4985895;28;95053;-46
2022/04/07 07:56:34;;;;;;;69.90;48.67;;;15.70;55.90;;;;;;4992552;28;95048;-37
2022/04/07 07:59:00;;;;;;;70.40;49.05;;;15.70;56.00;;;;;;4992867;28;95045;-37
2022/04/07 08:01:26;;;;;;;69.75;48.83;;;15.70;55.90;;;;;;4994795;28;94927;-40
2022/04/07 08:03:52;;;;;;;70.60;49.05;;;15.70;55.90;;;;;;4996443;28;94751;-36
2022/04/07 08:06:18;;;;;;;69.70;48.65;;;15.70;56.00;;;;;;4990454;28;95167;-38
2022/04/07 08:08:44;;;;;;;70.45;48.83;;;15.70;56.10;;;;;;4992246;28;95439;-39
2022/04/07 08:11:10;;;;;;;70.72;49.05;;;15.70;56.60;;;;;;4990509;28;95241;-37
2022/04/07 08:13:36;;;;;;;70.00;48.75;;;15.70;56.00;;;;;;4993948;28;95045;-34
2022/04/07 08:16:02;;;;;;;70.30;48.95;;;15.70;56.00;;;;;;4985291;28;98013;-37
2022/04/07 08:18:28;;;;;;;70.20;48.97;;;15.70;56.10;;;;;;4990580;28;95199;-38
2022/04/07 08:20:53;;;;;;;70.43;48.95;;;15.70;55.90;;;;;;4992942;28;95055;-39
2022/04/07 08:23:19;;;;;;;69.80;48.80;;;15.70;55.90;;;;;;4989754;28;97947;-39
2022/04/07 08:25:45;;;;;;;70.07;48.85;;;15.70;55.90;;;;;;4994530;28;95266;-40
2022/04/07 08:28:11;;;;;;;70.55;48.92;;;15.70;56.00;;;;;;4987688;28;95613;-40
2022/04/07 08:30:37;;;;;;;71.55;49.20;;;15.80;55.90;;;;;;4988871;28;95068;-41
2022/04/07 08:33:04;;;;;;;72.25;49.35;;;15.80;55.80;;;;;;4992294;28;96396;-40
2022/04/07 08:35:30;;;;;;;71.30;49.10;;;15.80;55.80;;;;;;4992906;28;96222;-39
2022/04/07 08:37:56;;;;;;;71.55;49.40;;;15.80;55.90;;;;;;4989894;28;95472;-41
2022/04/07 08:40:22;;;;;;;71.47;49.25;;;15.80;55.80;;;;;;4987879;28;96341;-37
2022/04/07 08:42:48;;;;;;;71.53;49.25;;;15.90;55.80;;;;;;4990362;28;94895;-38
2022/04/07 08:45:14;;;;;;;72.03;49.35;;;15.80;55.60;;;;;;4991397;28;95316;-37
2022/04/07 08:47:40;;;;;;;72.32;49.53;;;15.90;55.80;;;;;;4991366;28;94964;-39
2022/04/07 08:50:07;;;;;;;73.00;49.47;;;15.90;55.80;;;;;;4993243;28;94929;-37
2022/04/07 08:52:35;;;;;;;73.18;49.40;;;15.90;55.70;;;;;;4988186;28;95448;-37
2022/04/07 08:55:01;;;;;;;72.43;49.65;;;16.00;55.60;;;;;;4991596;28;96071;-38
2022/04/07 08:57:31;;;;;;;72.57;49.65;;;16.00;55.50;;;;;;4992776;28;94841;-39
2022/04/07 08:59:56;;;;;;;72.75;49.63;;;16.00;55.40;;;;;;4986278;28;96654;-39
2022/04/07 09:02:22;;;;;;;74.10;49.72;;;16.00;55.40;;;;;;5000116;28;95097;-37
2022/04/07 09:04:49;;;;;;;72.97;49.55;;;16.00;55.50;;;;;;4998274;28;95871;-36
2022/04/07 09:07:15;;;;;;;73.53;49.63;;;16.00;55.40;;;;;;4996256;28;96821;-35
2022/04/07 09:09:41;;;;;;;72.63;49.58;;;16.10;55.60;;;;;;4995498;28;95155;-39
2022/04/07 09:12:07;;;;;;;73.88;49.72;;;16.00;55.60;;;;;;4992215;28;94951;-37
2022/04/07 09:14:34;;;;;;;73.65;49.72;;;16.00;55.50;;;;;;4998853;28;95244;-36
2022/04/07 09:17:01;;;;;;;73.10;49.65;;;16.00;55.60;;;;;;4992786;28;95619;-41
2022/04/07 09:19:28;;;;;;;71.82;49.38;;;16.00;55.50;;;;;;4993056;28;95079;-40
2022/04/07 09:22:11;;;;;;;72.47;49.70;;;16.00;55.50;;;;;;4986438;28;95875;-37
2022/04/07 09:24:39;;;;;;;72.10;49.33;;;16.00;55.70;;;;;;4994269;28;95494;-40
2022/04/07 09:27:07;;;;;;;72.07;49.53;;;16.00;55.70;;;;;;4990631;28;95105;-41
2022/04/07 09:29:46;;;;;;;72.30;49.33;;;16.00;55.60;;;;;;4994441;28;95904;-37
2022/04/07 09:32:23;;;;;;;72.95;49.42;;;16.00;55.60;;;;;;4991372;28;95061;-39
2022/04/07 09:35:07;;;;;;;72.78;49.40;;;16.00;55.90;;;;;;4993152;28;94713;-36
2022/04/07 09:37:34;;;;;;;71.50;49.05;;;15.90;55.90;;;;;;4993032;28;95573;-41
2022/04/07 09:40:05;;;;;;;71.53;49.03;;;16.00;56.00;;;;;;4993421;28;94962;-39
2022/04/07 09:42:33;;;;;;;;;;;15.90;55.80;;;;;;4995864;28;94836;-40
2022/04/07 09:45:01;;;;;;;71.22;49.10;;;15.90;55.90;;;;;;4996723;28;96041;-37
2022/04/07 09:47:35;;;;;;;72.28;49.33;;;15.90;55.80;;;;;;4989273;28;94327;-39
2022/04/07 09:50:02;;;;;;;72.32;49.25;;;15.90;55.90;;;;;;4996425;28;94831;-40
2022/04/07 09:52:28;;;;;;;72.30;49.45;;;15.90;55.80;;;;;;4990932;28;97240;-53
2022/04/07 09:55:01;;;;;;;72.03;49.35;;;15.90;55.80;;;;;;4995463;28;96088;-38
2022/04/07 09:57:27;;;;;;;74.72;49.55;;;15.90;55.80;;;;;;4995066;28;97076;-40
2022/04/07 09:59:56;;;;;;;71.88;49.10;;;15.90;55.90;;;;;;4996868;28;95011;-41
2022/04/07 10:02:23;;;;;;;71.30;49.15;;;15.90;55.90;;;;;;4986930;28;95026;-38
2022/04/07 10:04:50;;;;;;;75.88;49.35;;;15.90;55.80;;;;;;4996017;28;95628;-39
2022/04/07 10:07:17;;;;;;;73.32;49.58;;;15.90;55.80;;;;;;4995076;28;95029;-38
2022/04/07 10:09:46;;;;;;;73.07;49.35;;;15.90;55.80;;;;;;4990835;28;94964;-39
2022/04/07 10:12:12;;;;;;;72.82;49.45;;;15.90;55.90;;;;;;4986115;28;95751;-41
2022/04/07 10:14:38;;;;;;;74.20;49.47;;;15.90;55.80;;;;;;4998495;28;96589;-37
2022/04/07 10:17:05;;;;;;;73.15;49.30;;;15.90;55.70;;;;;;4995154;28;94719;-38
2022/04/07 10:19:45;;;;;;;73.43;49.33;;;15.90;55.70;;;;;;4997948;28;95983;-38
2022/04/07 10:22:19;;;;;;;72.13;49.00;;;15.90;55.70;;;;;;4990780;28;95181;-41
2022/04/07 10:24:54;;;;;;;72.35;49.30;;;16.00;55.70;;;;;;5001731;28;99308;-37
2022/04/07 10:27:24;;;;;;;71.30;49.15;;;15.90;55.70;;;;;;4991631;28;95149;-39
2022/04/07 10:30:21;;;;;;;73.25;49.65;;;15.90;55.60;;;;;;4998417;28;95998;-40
2022/04/07 10:32:49;;;;;;;73.55;49.47;;;16.00;55.60;;;;;;4956830;28;94977;-38
2022/04/07 10:35:30;;;;;;;73.07;49.58;;;16.00;56.10;;;;;;4987789;28;95957;-37
2022/04/07 10:38:01;;;;;;;73.70;49.55;;;16.00;55.50;;;;;;4989671;28;94905;-39
2022/04/07 10:40:48;;;;;;;73.47;49.75;;;16.00;55.50;;;;;;4992827;28;95227;-40
2022/04/07 10:43:14;;;;;;;74.13;49.72;;;16.00;55.40;;;;;;4990353;28;95044;-37
2022/04/07 10:45:44;;;;;;;72.38;49.70;;;15.90;55.50;;;;;;4989191;28;95962;-37
2022/04/07 10:48:29;;;;;;;75.25;49.65;;;16.00;55.50;;;;;;4992187;28;96322;-37
2022/04/07 10:50:58;;;;;;;73.28;49.65;;;16.00;55.40;;;;;;4991196;28;95471;-39
2022/04/07 10:53:35;;;;;;;72.72;49.78;;;16.00;55.30;;;;;;4992275;28;95136;-40
2022/04/07 10:56:08;;;;;;;73.68;49.50;;;16.00;55.30;;;;;;4989934;28;95212;-38
2022/04/07 10:58:40;;;;;;;72.85;49.38;;;16.00;55.30;;;;;;4989468;28;95402;-37
2022/04/07 11:01:06;;;;;;;73.55;49.80;;;16.00;55.20;;;;;;4989927;28;94935;-40
2022/04/07 11:03:32;;;;;;;72.70;49.65;;;16.00;55.20;;;;;;4986540;28;94347;-40
2022/04/07 11:06:03;;;;;;;74.20;49.75;;;16.00;55.20;;;;;;4991665;28;95392;-39
2022/04/07 11:08:30;;;;;;;73.75;49.92;;;16.00;55.30;;;;;;4990319;28;96326;-37
2022/04/07 11:10:56;;;;;;;73.70;49.75;;;16.00;55.20;;;;;;4991278;28;96366;-39
2022/04/07 11:13:41;;;;;;;75.93;49.85;;;16.00;55.10;;;;;;4985950;28;94888;-39
2022/04/07 11:16:42;;;;;;;72.93;49.63;;;16.00;55.10;;;;;;4984223;28;95680;-39
2022/04/07 11:19:26;;;;;;;73.63;49.65;;;16.00;55.10;;;;;;4981143;28;95003;-39
2022/04/07 11:22:06;;;;;;;73.53;49.50;;;16.00;55.10;;;;;;4991053;28;94616;-40
2022/04/07 11:24:34;;;;;;;73.75;49.55;;;16.00;55.20;;;;;;4993014;28;94666;-39
2022/04/07 11:27:33;;;;;;;74.60;49.85;;;16.00;55.10;;;;;;4989551;28;97888;-37
2022/04/07 11:30:17;;;;;;;74.53;49.85;;;16.10;55.00;;;;;;4987216;28;94989;-36
2022/04/07 11:33:20;;;;;;;74.00;49.83;;;16.10;55.10;;;;;;4990228;28;94976;-40
2022/04/07 11:36:02;;;;;;;75.72;50.20;;;16.10;55.00;;;;;;4993293;28;95277;-40
2022/04/07 11:38:28;;;;;;;74.63;50.15;;;16.10;55.00;;;;;;4987139;28;99623;-39
2022/04/07 11:41:01;;;;;;;74.05;50.10;;;16.10;55.00;;;;;;4996345;28;94991;-41
2022/04/07 11:43:27;;;;;;;75.05;50.15;;;16.10;54.90;;;;;;4989222;28;94983;-34
2022/04/07 11:45:54;;;;;;;74.55;49.92;;;16.10;54.80;;;;;;4995908;28;94955;-35
2022/04/07 11:48:24;;;;;;;75.80;50.20;;;16.20;54.90;;;;;;4988658;28;94984;-43
2022/04/07 11:50:52;;;;;;;74.47;50.05;;;16.20;54.80;;;;;;4996697;27;95047;-38
2022/04/07 11:53:18;;;;;;;77.60;50.45;;;16.20;54.70;;;;;;4996225;28;94829;-37
2022/04/07 11:55:44;;;;;;;79.22;50.65;;;16.30;54.60;;;;;;4993698;28;94350;-38
2022/04/07 11:58:10;;;;;;;75.25;50.33;;;16.30;54.50;;;;;;4993908;28;95328;-39
2022/04/07 12:00:36;;;;;;;78.22;50.97;;;16.40;54.40;;;;;;4991893;28;95824;-39
2022/04/07 12:03:05;;;;;;;76.28;50.85;;;16.40;54.20;;;;;;4996103;28;95980;-40
2022/04/07 12:05:35;;;;;;;78.50;50.88;;;16.40;54.10;;;;;;4990550;28;96965;-39
2022/04/07 12:08:11;;;;;;;76.53;50.77;;;16.50;54.00;;;;;;4985053;28;97699;-42
2022/04/07 12:10:39;;;;;;;78.43;51.00;;;16.50;53.90;;;;;;4992314;28;95146;-39
2022/04/07 12:13:06;;;;;;;77.95;51.08;;;16.60;53.90;;;;;;4992685;28;94674;-38
2022/04/07 12:15:34;;;;;;;77.63;50.72;;;16.60;53.80;;;;;;4989457;28;95225;-38
2022/04/07 12:18:04;;;;;;;77.88;50.80;;;16.50;53.80;;;;;;4992697;28;95562;-37
2022/04/07 12:20:30;;;;;;;77.95;50.72;;;16.60;53.80;;;;;;4986922;28;95012;-39
2022/04/07 12:23:09;;;;;;;77.25;50.72;;;16.60;53.90;;;;;;4990939;28;95058;-41
2022/04/07 12:25:40;;;;;;;76.93;50.67;;;16.60;53.80;;;;;;4995109;28;96515;-41
2022/04/07 12:28:10;;;;;;;76.35;50.95;;;16.60;53.80;;;;;;4990315;27;96504;-40
2022/04/07 12:30:48;;;;;;;78.55;51.35;;;16.60;53.80;;;;;;4990978;28;94912;-40
2022/04/07 12:33:43;;;;;;;78.85;51.00;;;16.60;54.20;;;;;;4986973;28;94904;-38